sensor_id;sensor_type;location;lat;lon;timestamp;temperature;humidity
7254;DHT22;4060;49.186;9.226;2023-05-16T00:01:20;21.70;48.10
7254;DHT22;4060;49.186;9.226;2023-05-16T00:03:50;21.70;48.20
7254;DHT22;4060;49.186;9.226;2023-05-16T00:06:20;21.70;48.20
7254;DHT22;4060;49.186;9.226;2023-05-16T00:08:49;21.70;48.30
7254;DHT22;4060;49.186;9.226;2023-05-16T00:11:18;21.70;48.40
7254;DHT22;4060;49.186;9.226;2023-05-16T00:13:47;21.60;48.40
7254;DHT22;4060;49.186;9.226;2023-05-16T00:16:19;21.60;48.50
7254;DHT22;4060;49.186;9.226;2023-05-16T00:18:51;21.60;48.50
7254;DHT22;4060;49.186;9.226;2023-05-16T00:21:21;21.60;48.50
7254;DHT22;4060;49.186;9.226;2023-05-16T00:23:50;21.60;48.60
7254;DHT22;4060;49.186;9.226;2023-05-16T00:26:27;21.50;48.50
7254;DHT22;4060;49.186;9.226;2023-05-16T00:28:56;21.50;48.60
7254;DHT22;4060;49.186;9.226;2023-05-16T00:31:27;21.50;48.70
7254;DHT22;4060;49.186;9.226;2023-05-16T00:33:57;21.50;48.80
7254;DHT22;4060;49.186;9.226;2023-05-16T00:36:26;21.50;48.80
7254;DHT22;4060;49.186;9.226;2023-05-16T00:38:57;21.40;48.80
7254;DHT22;4060;49.186;9.226;2023-05-16T00:41:29;21.40;48.80
7254;DHT22;4060;49.186;9.226;2023-05-16T00:43:58;21.40;48.90
7254;DHT22;4060;49.186;9.226;2023-05-16T00:46:29;21.40;48.90
7254;DHT22;4060;49.186;9.226;2023-05-16T00:48:58;21.40;49.00
7254;DHT22;4060;49.186;9.226;2023-05-16T00:51:27;21.30;49.00
7254;DHT22;4060;49.186;9.226;2023-05-16T00:53:57;21.30;49.00
7254;DHT22;4060;49.186;9.226;2023-05-16T00:56:27;21.30;49.10
7254;DHT22;4060;49.186;9.226;2023-05-16T00:58:57;21.30;49.10
7254;DHT22;4060;49.186;9.226;2023-05-16T01:01:29;21.30;49.20
7254;DHT22;4060;49.186;9.226;2023-05-16T01:03:59;21.20;49.70
7254;DHT22;4060;49.186;9.226;2023-05-16T01:06:28;21.20;49.30
7254;DHT22;4060;49.186;9.226;2023-05-16T01:08:58;21.20;49.40
7254;DHT22;4060;49.186;9.226;2023-05-16T01:11:35;21.20;49.40
7254;DHT22;4060;49.186;9.226;2023-05-16T01:14:19;21.20;49.50
7254;DHT22;4060;49.186;9.226;2023-05-16T01:16:57;21.10;49.50
7254;DHT22;4060;49.186;9.226;2023-05-16T01:19:46;21.10;49.50
7254;DHT22;4060;49.186;9.226;2023-05-16T01:22:25;21.10;49.60
7254;DHT22;4060;49.186;9.226;2023-05-16T01:25:10;21.10;49.70
7254;DHT22;4060;49.186;9.226;2023-05-16T01:27:45;21.10;49.80
7254;DHT22;4060;49.186;9.226;2023-05-16T01:30:16;21.00;49.70
7254;DHT22;4060;49.186;9.226;2023-05-16T01:32:45;21.00;49.80
7254;DHT22;4060;49.186;9.226;2023-05-16T01:35:16;21.00;49.90
7254;DHT22;4060;49.186;9.226;2023-05-16T01:37:51;21.00;49.90
7254;DHT22;4060;49.186;9.226;2023-05-16T01:40:33;21.00;50.00
7254;DHT22;4060;49.186;9.226;2023-05-16T01:43:16;21.00;50.00
7254;DHT22;4060;49.186;9.226;2023-05-16T01:45:50;21.00;50.20
7254;DHT22;4060;49.186;9.226;2023-05-16T01:48:25;20.90;50.10
7254;DHT22;4060;49.186;9.226;2023-05-16T01:50:56;20.90;50.10
7254;DHT22;4060;49.186;9.226;2023-05-16T01:53:28;20.90;50.20
7254;DHT22;4060;49.186;9.226;2023-05-16T01:56:00;20.90;50.30
7254;DHT22;4060;49.186;9.226;2023-05-16T01:58:33;20.90;50.30
7254;DHT22;4060;49.186;9.226;2023-05-16T02:01:05;20.80;50.30
7254;DHT22;4060;49.186;9.226;2023-05-16T02:03:35;20.80;50.40
7254;DHT22;4060;49.186;9.226;2023-05-16T02:06:04;20.80;50.40
7254;DHT22;4060;49.186;9.226;2023-05-16T02:08:34;20.80;50.50
7254;DHT22;4060;49.186;9.226;2023-05-16T02:11:03;20.80;50.50
7254;DHT22;4060;49.186;9.226;2023-05-16T02:13:34;20.70;50.50
7254;DHT22;4060;49.186;9.226;2023-05-16T02:16:03;20.70;50.50
7254;DHT22;4060;49.186;9.226;2023-05-16T02:18:33;20.70;50.60
7254;DHT22;4060;49.186;9.226;2023-05-16T02:21:02;20.70;50.60
7254;DHT22;4060;49.186;9.226;2023-05-16T02:23:31;20.70;50.70
7254;DHT22;4060;49.186;9.226;2023-05-16T02:26:00;20.70;50.80
7254;DHT22;4060;49.186;9.226;2023-05-16T02:28:31;20.70;50.80
7254;DHT22;4060;49.186;9.226;2023-05-16T02:31:02;20.60;50.80
7254;DHT22;4060;49.186;9.226;2023-05-16T02:33:31;20.60;50.90
7254;DHT22;4060;49.186;9.226;2023-05-16T02:36:01;20.60;50.90
7254;DHT22;4060;49.186;9.226;2023-05-16T02:38:30;20.60;50.90
7254;DHT22;4060;49.186;9.226;2023-05-16T02:40:59;20.60;51.00
7254;DHT22;4060;49.186;9.226;2023-05-16T02:43:28;20.60;51.00
7254;DHT22;4060;49.186;9.226;2023-05-16T02:45:58;20.50;51.00
7254;DHT22;4060;49.186;9.226;2023-05-16T02:48:29;20.50;51.10
7254;DHT22;4060;49.186;9.226;2023-05-16T02:50:59;20.50;51.10
7254;DHT22;4060;49.186;9.226;2023-05-16T02:53:28;20.50;51.10
7254;DHT22;4060;49.186;9.226;2023-05-16T02:55:57;20.50;51.20
7254;DHT22;4060;49.186;9.226;2023-05-16T02:58:27;20.50;51.30
7254;DHT22;4060;49.186;9.226;2023-05-16T03:00:56;20.50;51.30
7254;DHT22;4060;49.186;9.226;2023-05-16T03:03:26;20.40;51.30
7254;DHT22;4060;49.186;9.226;2023-05-16T03:05:57;20.40;51.30
7254;DHT22;4060;49.186;9.226;2023-05-16T03:08:26;20.40;51.40
7254;DHT22;4060;49.186;9.226;2023-05-16T03:10:56;20.40;51.50
7254;DHT22;4060;49.186;9.226;2023-05-16T03:13:25;20.40;51.50
7254;DHT22;4060;49.186;9.226;2023-05-16T03:15:56;20.30;51.40
7254;DHT22;4060;49.186;9.226;2023-05-16T03:18:25;20.30;51.60
7254;DHT22;4060;49.186;9.226;2023-05-16T03:20:57;20.30;51.60
7254;DHT22;4060;49.186;9.226;2023-05-16T03:23:27;20.30;51.70
7254;DHT22;4060;49.186;9.226;2023-05-16T03:25:56;20.30;51.70
7254;DHT22;4060;49.186;9.226;2023-05-16T03:28:26;20.30;51.80
7254;DHT22;4060;49.186;9.226;2023-05-16T03:30:55;20.30;51.80
7254;DHT22;4060;49.186;9.226;2023-05-16T03:33:25;20.20;51.80
7254;DHT22;4060;49.186;9.226;2023-05-16T03:35:56;20.20;51.80
7254;DHT22;4060;49.186;9.226;2023-05-16T03:38:25;20.20;51.90
7254;DHT22;4060;49.186;9.226;2023-05-16T03:40:55;20.20;51.90
7254;DHT22;4060;49.186;9.226;2023-05-16T03:43:24;20.20;51.90
7254;DHT22;4060;49.186;9.226;2023-05-16T03:45:53;20.20;52.00
7254;DHT22;4060;49.186;9.226;2023-05-16T03:48:25;20.10;52.00
7254;DHT22;4060;49.186;9.226;2023-05-16T03:50:54;20.10;52.00
7254;DHT22;4060;49.186;9.226;2023-05-16T03:53:25;20.10;52.10
7254;DHT22;4060;49.186;9.226;2023-05-16T03:55:54;20.10;52.10
7254;DHT22;4060;49.186;9.226;2023-05-16T03:58:24;20.10;52.20
7254;DHT22;4060;49.186;9.226;2023-05-16T04:00:53;20.10;52.70
7254;DHT22;4060;49.186;9.226;2023-05-16T04:03:23;20.10;52.30
7254;DHT22;4060;49.186;9.226;2023-05-16T04:05:54;20.00;52.20
7254;DHT22;4060;49.186;9.226;2023-05-16T04:08:25;20.00;52.30
7254;DHT22;4060;49.186;9.226;2023-05-16T04:10:55;20.00;52.30
7254;DHT22;4060;49.186;9.226;2023-05-16T04:13:24;20.00;52.30
7254;DHT22;4060;49.186;9.226;2023-05-16T04:15:53;20.00;52.40
7254;DHT22;4060;49.186;9.226;2023-05-16T04:18:23;20.00;52.50
7254;DHT22;4060;49.186;9.226;2023-05-16T04:20:53;20.00;52.50
7254;DHT22;4060;49.186;9.226;2023-05-16T04:23:24;19.90;52.50
7254;DHT22;4060;49.186;9.226;2023-05-16T04:25:53;19.90;52.50
7254;DHT22;4060;49.186;9.226;2023-05-16T04:28:23;19.90;52.60
7254;DHT22;4060;49.186;9.226;2023-05-16T04:30:52;19.90;52.60
7254;DHT22;4060;49.186;9.226;2023-05-16T04:33:21;19.90;52.60
7254;DHT22;4060;49.186;9.226;2023-05-16T04:35:50;19.90;52.70
7254;DHT22;4060;49.186;9.226;2023-05-16T04:38:20;19.90;52.80
7254;DHT22;4060;49.186;9.226;2023-05-16T04:40:52;19.90;52.80
7254;DHT22;4060;49.186;9.226;2023-05-16T04:43:21;19.80;52.80
7254;DHT22;4060;49.186;9.226;2023-05-16T04:45:56;19.80;52.90
7254;DHT22;4060;49.186;9.226;2023-05-16T04:48:26;19.80;52.90
7254;DHT22;4060;49.186;9.226;2023-05-16T04:50:55;19.80;52.90
7254;DHT22;4060;49.186;9.226;2023-05-16T04:53:25;19.80;53.00
7254;DHT22;4060;49.186;9.226;2023-05-16T04:55:56;19.80;53.00
7254;DHT22;4060;49.186;9.226;2023-05-16T04:58:26;19.80;53.10
7254;DHT22;4060;49.186;9.226;2023-05-16T05:00:55;19.70;53.00
7254;DHT22;4060;49.186;9.226;2023-05-16T05:03:25;19.70;53.00
7254;DHT22;4060;49.186;9.226;2023-05-16T05:05:54;19.70;53.10
7254;DHT22;4060;49.186;9.226;2023-05-16T05:08:24;19.70;53.10
7254;DHT22;4060;49.186;9.226;2023-05-16T05:10:57;19.70;53.10
7254;DHT22;4060;49.186;9.226;2023-05-16T05:13:26;19.70;53.10
7254;DHT22;4060;49.186;9.226;2023-05-16T05:15:55;19.70;53.20
7254;DHT22;4060;49.186;9.226;2023-05-16T05:18:25;19.70;53.30
7254;DHT22;4060;49.186;9.226;2023-05-16T05:20:55;19.70;53.30
7254;DHT22;4060;49.186;9.226;2023-05-16T05:23:24;19.60;53.20
7254;DHT22;4060;49.186;9.226;2023-05-16T05:25:53;19.60;53.20
7254;DHT22;4060;49.186;9.226;2023-05-16T05:28:24;19.60;53.20
7254;DHT22;4060;49.186;9.226;2023-05-16T05:30:54;19.60;53.20
7254;DHT22;4060;49.186;9.226;2023-05-16T05:33:26;19.60;53.20
7254;DHT22;4060;49.186;9.226;2023-05-16T05:35:56;19.60;53.30
7254;DHT22;4060;49.186;9.226;2023-05-16T05:38:26;19.50;53.20
7254;DHT22;4060;49.186;9.226;2023-05-16T05:40:55;19.50;53.20
7254;DHT22;4060;49.186;9.226;2023-05-16T05:43:25;19.50;53.30
7254;DHT22;4060;49.186;9.226;2023-05-16T05:45:55;19.60;53.40
7254;DHT22;4060;49.186;9.226;2023-05-16T05:48:24;19.50;53.30
7254;DHT22;4060;49.186;9.226;2023-05-16T05:50:56;19.50;53.30
7254;DHT22;4060;49.186;9.226;2023-05-16T05:53:26;19.50;53.40
7254;DHT22;4060;49.186;9.226;2023-05-16T05:55:55;19.50;53.40
7254;DHT22;4060;49.186;9.226;2023-05-16T05:58:26;19.50;53.40
7254;DHT22;4060;49.186;9.226;2023-05-16T06:00:55;19.50;53.50
7254;DHT22;4060;49.186;9.226;2023-05-16T06:03:25;19.50;53.50
7254;DHT22;4060;49.186;9.226;2023-05-16T06:05:54;19.50;53.50
7254;DHT22;4060;49.186;9.226;2023-05-16T06:08:23;19.40;53.50
7254;DHT22;4060;49.186;9.226;2023-05-16T06:10:52;19.40;53.50
7254;DHT22;4060;49.186;9.226;2023-05-16T06:13:22;19.40;53.50
7254;DHT22;4060;49.186;9.226;2023-05-16T06:15:53;19.40;53.60
7254;DHT22;4060;49.186;9.226;2023-05-16T06:18:22;19.40;53.60
7254;DHT22;4060;49.186;9.226;2023-05-16T06:20:52;19.40;53.70
7254;DHT22;4060;49.186;9.226;2023-05-16T06:23:21;19.40;53.80
7254;DHT22;4060;49.186;9.226;2023-05-16T06:25:51;19.40;53.80
7254;DHT22;4060;49.186;9.226;2023-05-16T06:28:20;19.40;54.00
7254;DHT22;4060;49.186;9.226;2023-05-16T06:30:50;19.40;54.00
7254;DHT22;4060;49.186;9.226;2023-05-16T06:33:21;19.40;54.10
7254;DHT22;4060;49.186;9.226;2023-05-16T06:35:50;19.40;54.20
7254;DHT22;4060;49.186;9.226;2023-05-16T06:38:20;19.40;54.20
7254;DHT22;4060;49.186;9.226;2023-05-16T06:40:49;19.30;54.20
7254;DHT22;4060;49.186;9.226;2023-05-16T06:43:18;19.30;54.30
7254;DHT22;4060;49.186;9.226;2023-05-16T06:45:48;19.30;54.40
7254;DHT22;4060;49.186;9.226;2023-05-16T06:48:18;19.30;54.50
7254;DHT22;4060;49.186;9.226;2023-05-16T06:50:54;19.30;54.60
7254;DHT22;4060;49.186;9.226;2023-05-16T06:53:23;19.30;54.60
7254;DHT22;4060;49.186;9.226;2023-05-16T06:55:53;19.20;54.60
7254;DHT22;4060;49.186;9.226;2023-05-16T06:58:23;19.20;54.70
7254;DHT22;4060;49.186;9.226;2023-05-16T07:00:52;19.20;54.80
7254;DHT22;4060;49.186;9.226;2023-05-16T07:03:22;19.20;54.80
7254;DHT22;4060;49.186;9.226;2023-05-16T07:05:53;19.20;54.90
7254;DHT22;4060;49.186;9.226;2023-05-16T07:08:23;19.20;55.00
7254;DHT22;4060;49.186;9.226;2023-05-16T07:10:52;19.20;55.00
7254;DHT22;4060;49.186;9.226;2023-05-16T07:13:22;19.20;55.20
7254;DHT22;4060;49.186;9.226;2023-05-16T07:15:52;19.20;55.40
7254;DHT22;4060;49.186;9.226;2023-05-16T07:18:22;19.10;55.50
7254;DHT22;4060;49.186;9.226;2023-05-16T07:20:53;19.10;55.70
7254;DHT22;4060;49.186;9.226;2023-05-16T07:23:24;19.10;55.90
7254;DHT22;4060;49.186;9.226;2023-05-16T07:25:54;19.00;56.10
7254;DHT22;4060;49.186;9.226;2023-05-16T07:28:24;19.00;56.20
7254;DHT22;4060;49.186;9.226;2023-05-16T07:30:54;19.00;56.40
7254;DHT22;4060;49.186;9.226;2023-05-16T07:33:25;19.00;56.50
7254;DHT22;4060;49.186;9.226;2023-05-16T07:35:57;19.00;56.60
7254;DHT22;4060;49.186;9.226;2023-05-16T07:38:27;19.00;56.70
7254;DHT22;4060;49.186;9.226;2023-05-16T07:40:57;19.00;56.80
7254;DHT22;4060;49.186;9.226;2023-05-16T07:43:27;18.90;56.80
7254;DHT22;4060;49.186;9.226;2023-05-16T07:46:07;18.90;56.90
7254;DHT22;4060;49.186;9.226;2023-05-16T07:48:53;18.90;57.10
7254;DHT22;4060;49.186;9.226;2023-05-16T07:51:27;18.90;57.00
7254;DHT22;4060;49.186;9.226;2023-05-16T07:54:02;18.90;57.20
7254;DHT22;4060;49.186;9.226;2023-05-16T07:56:32;18.90;57.20
7254;DHT22;4060;49.186;9.226;2023-05-16T07:59:03;18.90;57.30
7254;DHT22;4060;49.186;9.226;2023-05-16T08:01:34;18.90;57.40
7254;DHT22;4060;49.186;9.226;2023-05-16T08:04:04;18.80;57.90
7254;DHT22;4060;49.186;9.226;2023-05-16T08:06:43;18.80;57.50
7254;DHT22;4060;49.186;9.226;2023-05-16T08:09:21;18.80;57.50
7254;DHT22;4060;49.186;9.226;2023-05-16T08:12:03;18.80;57.70
7254;DHT22;4060;49.186;9.226;2023-05-16T08:14:37;18.80;57.70
7254;DHT22;4060;49.186;9.226;2023-05-16T08:17:07;18.80;57.80
7254;DHT22;4060;49.186;9.226;2023-05-16T08:19:37;18.80;57.90
7254;DHT22;4060;49.186;9.226;2023-05-16T08:22:09;18.80;58.00
7254;DHT22;4060;49.186;9.226;2023-05-16T08:24:39;18.80;58.00
7254;DHT22;4060;49.186;9.226;2023-05-16T08:27:09;18.80;58.00
7254;DHT22;4060;49.186;9.226;2023-05-16T08:29:38;18.70;58.10
7254;DHT22;4060;49.186;9.226;2023-05-16T08:32:11;18.70;58.10
7254;DHT22;4060;49.186;9.226;2023-05-16T08:34:41;18.80;58.30
7254;DHT22;4060;49.186;9.226;2023-05-16T08:37:12;18.70;58.30
7254;DHT22;4060;49.186;9.226;2023-05-16T08:39:42;18.70;58.40
7254;DHT22;4060;49.186;9.226;2023-05-16T08:42:13;18.70;58.50
7254;DHT22;4060;49.186;9.226;2023-05-16T08:44:45;18.70;58.60
7254;DHT22;4060;49.186;9.226;2023-05-16T08:47:18;18.70;58.60
7254;DHT22;4060;49.186;9.226;2023-05-16T08:49:48;18.70;58.60
7254;DHT22;4060;49.186;9.226;2023-05-16T08:52:26;18.70;58.60
7254;DHT22;4060;49.186;9.226;2023-05-16T08:55:00;18.70;58.80
7254;DHT22;4060;49.186;9.226;2023-05-16T08:57:32;18.70;58.80
7254;DHT22;4060;49.186;9.226;2023-05-16T09:00:02;18.70;58.90
7254;DHT22;4060;49.186;9.226;2023-05-16T09:02:38;18.70;58.90
7254;DHT22;4060;49.186;9.226;2023-05-16T09:05:09;18.70;58.90
7254;DHT22;4060;49.186;9.226;2023-05-16T09:07:43;18.70;59.10
7254;DHT22;4060;49.186;9.226;2023-05-16T09:10:12;18.70;59.20
7254;DHT22;4060;49.186;9.226;2023-05-16T09:12:43;18.70;59.20
7254;DHT22;4060;49.186;9.226;2023-05-16T09:15:23;18.70;59.20
7254;DHT22;4060;49.186;9.226;2023-05-16T09:18:00;18.70;59.30
7254;DHT22;4060;49.186;9.226;2023-05-16T09:20:31;18.70;59.30
7254;DHT22;4060;49.186;9.226;2023-05-16T09:23:03;18.70;59.30
7254;DHT22;4060;49.186;9.226;2023-05-16T09:25:33;18.70;59.30
7254;DHT22;4060;49.186;9.226;2023-05-16T09:28:03;18.70;59.30
7254;DHT22;4060;49.186;9.226;2023-05-16T09:30:33;18.60;59.30
7254;DHT22;4060;49.186;9.226;2023-05-16T09:33:06;18.60;59.30
7254;DHT22;4060;49.186;9.226;2023-05-16T09:35:36;18.70;59.40
7254;DHT22;4060;49.186;9.226;2023-05-16T09:38:14;18.70;59.50
7254;DHT22;4060;49.186;9.226;2023-05-16T09:40:45;18.60;59.50
7254;DHT22;4060;49.186;9.226;2023-05-16T09:43:16;18.60;59.50
7254;DHT22;4060;49.186;9.226;2023-05-16T09:45:46;18.60;59.50
7254;DHT22;4060;49.186;9.226;2023-05-16T09:48:16;18.70;59.70
7254;DHT22;4060;49.186;9.226;2023-05-16T09:50:49;18.60;59.70
7254;DHT22;4060;49.186;9.226;2023-05-16T09:53:29;18.60;59.80
7254;DHT22;4060;49.186;9.226;2023-05-16T09:56:03;18.70;59.90
7254;DHT22;4060;49.186;9.226;2023-05-16T09:58:35;18.60;59.80
7254;DHT22;4060;49.186;9.226;2023-05-16T10:01:05;18.60;59.90
7254;DHT22;4060;49.186;9.226;2023-05-16T10:03:37;18.60;59.90
7254;DHT22;4060;49.186;9.226;2023-05-16T10:06:07;18.60;59.90
7254;DHT22;4060;49.186;9.226;2023-05-16T10:08:41;18.60;59.90
7254;DHT22;4060;49.186;9.226;2023-05-16T10:11:14;18.70;60.10
7254;DHT22;4060;49.186;9.226;2023-05-16T10:13:47;18.60;60.00
7254;DHT22;4060;49.186;9.226;2023-05-16T10:16:21;18.70;60.10
7254;DHT22;4060;49.186;9.226;2023-05-16T10:18:52;18.60;60.00
7254;DHT22;4060;49.186;9.226;2023-05-16T10:21:23;18.60;60.00
7254;DHT22;4060;49.186;9.226;2023-05-16T10:23:58;18.60;60.00
7254;DHT22;4060;49.186;9.226;2023-05-16T10:26:32;18.60;60.00
7254;DHT22;4060;49.186;9.226;2023-05-16T10:29:05;18.60;59.90
7254;DHT22;4060;49.186;9.226;2023-05-16T10:31:35;18.60;59.90
7254;DHT22;4060;49.186;9.226;2023-05-16T10:34:09;18.60;60.00
7254;DHT22;4060;49.186;9.226;2023-05-16T10:36:42;18.60;59.90
7254;DHT22;4060;49.186;9.226;2023-05-16T10:39:16;18.60;59.90
7254;DHT22;4060;49.186;9.226;2023-05-16T10:41:46;18.60;59.90
7254;DHT22;4060;49.186;9.226;2023-05-16T10:44:17;18.60;59.90
7254;DHT22;4060;49.186;9.226;2023-05-16T10:46:47;18.60;60.00
7254;DHT22;4060;49.186;9.226;2023-05-16T10:49:21;18.60;60.00
7254;DHT22;4060;49.186;9.226;2023-05-16T10:52:06;18.60;60.00
7254;DHT22;4060;49.186;9.226;2023-05-16T10:54:40;18.60;60.00
7254;DHT22;4060;49.186;9.226;2023-05-16T10:57:11;18.60;60.00
7254;DHT22;4060;49.186;9.226;2023-05-16T10:59:47;18.60;60.00
7254;DHT22;4060;49.186;9.226;2023-05-16T11:02:40;18.60;60.00
7254;DHT22;4060;49.186;9.226;2023-05-16T11:05:19;18.60;60.10
7254;DHT22;4060;49.186;9.226;2023-05-16T11:08:04;18.60;60.10
7254;DHT22;4060;49.186;9.226;2023-05-16T11:10:40;18.60;60.20
7254;DHT22;4060;49.186;9.226;2023-05-16T11:13:11;18.60;60.00
7254;DHT22;4060;49.186;9.226;2023-05-16T11:15:47;18.60;60.10
7254;DHT22;4060;49.186;9.226;2023-05-16T11:18:19;18.60;60.10
7254;DHT22;4060;49.186;9.226;2023-05-16T11:20:51;18.60;60.10
7254;DHT22;4060;49.186;9.226;2023-05-16T11:23:24;18.60;60.10
7254;DHT22;4060;49.186;9.226;2023-05-16T11:25:57;18.60;60.00
7254;DHT22;4060;49.186;9.226;2023-05-16T11:28:48;18.60;60.10
7254;DHT22;4060;49.186;9.226;2023-05-16T11:31:18;18.60;60.30
7254;DHT22;4060;49.186;9.226;2023-05-16T11:33:48;18.60;60.00
7254;DHT22;4060;49.186;9.226;2023-05-16T11:36:24;18.60;60.00
7254;DHT22;4060;49.186;9.226;2023-05-16T11:39:06;18.60;60.10
7254;DHT22;4060;49.186;9.226;2023-05-16T11:41:40;18.60;60.10
7254;DHT22;4060;49.186;9.226;2023-05-16T11:44:12;18.60;60.00
7254;DHT22;4060;49.186;9.226;2023-05-16T11:46:41;18.60;60.00
7254;DHT22;4060;49.186;9.226;2023-05-16T11:49:12;18.60;60.00
7254;DHT22;4060;49.186;9.226;2023-05-16T11:51:42;18.60;59.90
7254;DHT22;4060;49.186;9.226;2023-05-16T11:54:13;18.60;59.80
7254;DHT22;4060;49.186;9.226;2023-05-16T11:56:48;18.60;59.80
7254;DHT22;4060;49.186;9.226;2023-05-16T11:59:19;18.60;59.90
7254;DHT22;4060;49.186;9.226;2023-05-16T12:01:50;18.60;59.80
7254;DHT22;4060;49.186;9.226;2023-05-16T12:04:23;18.60;59.80
7254;DHT22;4060;49.186;9.226;2023-05-16T12:07:01;18.60;59.60
7254;DHT22;4060;49.186;9.226;2023-05-16T12:09:32;18.60;59.60
7254;DHT22;4060;49.186;9.226;2023-05-16T12:12:06;18.50;59.50
7254;DHT22;4060;49.186;9.226;2023-05-16T12:14:36;18.60;59.60
7254;DHT22;4060;49.186;9.226;2023-05-16T12:17:07;18.50;59.50
7254;DHT22;4060;49.186;9.226;2023-05-16T12:19:39;18.50;59.50
7254;DHT22;4060;49.186;9.226;2023-05-16T12:22:17;18.50;59.60
7254;DHT22;4060;49.186;9.226;2023-05-16T12:24:48;18.50;59.60
7254;DHT22;4060;49.186;9.226;2023-05-16T12:27:25;18.50;59.50
7254;DHT22;4060;49.186;9.226;2023-05-16T12:29:58;18.50;59.50
7254;DHT22;4060;49.186;9.226;2023-05-16T12:32:29;18.50;59.50
7254;DHT22;4060;49.186;9.226;2023-05-16T12:35:10;18.50;59.50
7254;DHT22;4060;49.186;9.226;2023-05-16T12:37:44;18.50;59.50
7254;DHT22;4060;49.186;9.226;2023-05-16T12:40:14;18.50;59.40
7254;DHT22;4060;49.186;9.226;2023-05-16T12:42:49;18.50;59.40
7254;DHT22;4060;49.186;9.226;2023-05-16T12:45:21;18.50;59.40
7254;DHT22;4060;49.186;9.226;2023-05-16T12:47:51;18.50;59.40
7254;DHT22;4060;49.186;9.226;2023-05-16T12:50:21;18.50;59.30
7254;DHT22;4060;49.186;9.226;2023-05-16T12:52:52;18.50;59.20
7254;DHT22;4060;49.186;9.226;2023-05-16T12:55:23;18.60;59.30
7254;DHT22;4060;49.186;9.226;2023-05-16T12:57:56;18.60;59.30
7254;DHT22;4060;49.186;9.226;2023-05-16T13:00:27;18.60;59.30
7254;DHT22;4060;49.186;9.226;2023-05-16T13:03:14;18.60;59.30
7254;DHT22;4060;49.186;9.226;2023-05-16T13:05:43;18.60;59.50
7254;DHT22;4060;49.186;9.226;2023-05-16T13:08:13;18.60;59.30
7254;DHT22;4060;49.186;9.226;2023-05-16T13:10:44;18.60;59.30
7254;DHT22;4060;49.186;9.226;2023-05-16T13:13:17;18.60;59.30
7254;DHT22;4060;49.186;9.226;2023-05-16T13:15:48;18.60;59.30
7254;DHT22;4060;49.186;9.226;2023-05-16T13:18:18;18.60;59.30
7254;DHT22;4060;49.186;9.226;2023-05-16T13:20:50;18.60;59.30
7254;DHT22;4060;49.186;9.226;2023-05-16T13:23:20;18.60;59.20
7254;DHT22;4060;49.186;9.226;2023-05-16T13:25:50;18.60;59.10
7254;DHT22;4060;49.186;9.226;2023-05-16T13:28:25;18.60;59.10
7254;DHT22;4060;49.186;9.226;2023-05-16T13:30:55;18.60;59.00
7254;DHT22;4060;49.186;9.226;2023-05-16T13:33:25;18.70;59.00
7254;DHT22;4060;49.186;9.226;2023-05-16T13:35:55;18.70;59.00
7254;DHT22;4060;49.186;9.226;2023-05-16T13:38:25;18.70;58.90
7254;DHT22;4060;49.186;9.226;2023-05-16T13:40:55;18.70;59.00
7254;DHT22;4060;49.186;9.226;2023-05-16T13:43:27;18.70;59.00
7254;DHT22;4060;49.186;9.226;2023-05-16T13:45:57;18.70;59.00
7254;DHT22;4060;49.186;9.226;2023-05-16T13:48:28;18.70;59.00
7254;DHT22;4060;49.186;9.226;2023-05-16T13:50:58;18.70;59.00
7254;DHT22;4060;49.186;9.226;2023-05-16T13:53:31;18.70;59.00
7254;DHT22;4060;49.186;9.226;2023-05-16T13:56:00;18.70;59.00
7254;DHT22;4060;49.186;9.226;2023-05-16T13:58:33;18.70;58.90
7254;DHT22;4060;49.186;9.226;2023-05-16T14:01:05;18.70;58.70
7254;DHT22;4060;49.186;9.226;2023-05-16T14:03:36;18.70;58.80
7254;DHT22;4060;49.186;9.226;2023-05-16T14:06:07;18.70;58.70
7254;DHT22;4060;49.186;9.226;2023-05-16T14:08:37;18.70;58.60
7254;DHT22;4060;49.186;9.226;2023-05-16T14:11:07;18.70;58.50
7254;DHT22;4060;49.186;9.226;2023-05-16T14:13:42;18.80;58.60
7254;DHT22;4060;49.186;9.226;2023-05-16T14:16:13;18.80;58.60
7254;DHT22;4060;49.186;9.226;2023-05-16T14:18:43;18.80;58.60
7254;DHT22;4060;49.186;9.226;2023-05-16T14:21:14;18.80;58.60
7254;DHT22;4060;49.186;9.226;2023-05-16T14:23:43;18.80;58.50
7254;DHT22;4060;49.186;9.226;2023-05-16T14:26:13;18.80;58.50
7254;DHT22;4060;49.186;9.226;2023-05-16T14:28:48;18.80;58.40
7254;DHT22;4060;49.186;9.226;2023-05-16T14:31:18;18.80;58.30
7254;DHT22;4060;49.186;9.226;2023-05-16T14:33:48;18.80;58.30
7254;DHT22;4060;49.186;9.226;2023-05-16T14:36:19;18.80;58.20
7254;DHT22;4060;49.186;9.226;2023-05-16T14:38:50;18.80;58.20
7254;DHT22;4060;49.186;9.226;2023-05-16T14:41:21;18.80;58.20
7254;DHT22;4060;49.186;9.226;2023-05-16T14:43:53;18.80;58.00
7254;DHT22;4060;49.186;9.226;2023-05-16T14:46:23;18.80;58.00
7254;DHT22;4060;49.186;9.226;2023-05-16T14:48:54;18.90;58.00
7254;DHT22;4060;49.186;9.226;2023-05-16T14:51:26;18.90;57.90
7254;DHT22;4060;49.186;9.226;2023-05-16T14:53:58;18.90;57.80
7254;DHT22;4060;49.186;9.226;2023-05-16T14:56:28;18.90;57.70
7254;DHT22;4060;49.186;9.226;2023-05-16T14:59:01;18.90;57.60
7254;DHT22;4060;49.186;9.226;2023-05-16T15:01:31;18.90;57.50
7254;DHT22;4060;49.186;9.226;2023-05-16T15:04:01;18.90;57.40
7254;DHT22;4060;49.186;9.226;2023-05-16T15:06:31;18.90;57.40
7254;DHT22;4060;49.186;9.226;2023-05-16T15:09:01;18.90;57.10
7254;DHT22;4060;49.186;9.226;2023-05-16T15:11:32;18.90;57.00
7254;DHT22;4060;49.186;9.226;2023-05-16T15:14:04;18.90;56.90
7254;DHT22;4060;49.186;9.226;2023-05-16T15:16:35;18.90;56.90
7254;DHT22;4060;49.186;9.226;2023-05-16T15:19:07;18.80;56.60
7254;DHT22;4060;49.186;9.226;2023-05-16T15:21:38;18.90;56.50
7254;DHT22;4060;49.186;9.226;2023-05-16T15:24:10;18.90;56.70
7254;DHT22;4060;49.186;9.226;2023-05-16T15:26:41;18.90;56.30
7254;DHT22;4060;49.186;9.226;2023-05-16T15:29:14;18.90;56.10
7254;DHT22;4060;49.186;9.226;2023-05-16T15:31:45;18.90;56.00
7254;DHT22;4060;49.186;9.226;2023-05-16T15:34:15;18.80;55.90
7254;DHT22;4060;49.186;9.226;2023-05-16T15:36:46;18.90;56.40
7254;DHT22;4060;49.186;9.226;2023-05-16T15:39:16;18.90;55.60
7254;DHT22;4060;49.186;9.226;2023-05-16T15:41:46;18.80;55.30
7254;DHT22;4060;49.186;9.226;2023-05-16T15:44:18;18.80;55.40
7254;DHT22;4060;49.186;9.226;2023-05-16T15:46:47;18.80;55.30
7254;DHT22;4060;49.186;9.226;2023-05-16T15:49:17;18.90;55.50
7254;DHT22;4060;49.186;9.226;2023-05-16T15:51:47;18.90;55.80
7254;DHT22;4060;49.186;9.226;2023-05-16T15:54:22;18.90;55.70
7254;DHT22;4060;49.186;9.226;2023-05-16T15:56:52;18.90;55.70
7254;DHT22;4060;49.186;9.226;2023-05-16T15:59:24;18.90;55.70
7254;DHT22;4060;49.186;9.226;2023-05-16T16:01:53;18.90;55.70
7254;DHT22;4060;49.186;9.226;2023-05-16T16:04:23;18.80;55.50
7254;DHT22;4060;49.186;9.226;2023-05-16T16:06:52;18.90;55.40
7254;DHT22;4060;49.186;9.226;2023-05-16T16:09:24;18.90;55.20
7254;DHT22;4060;49.186;9.226;2023-05-16T16:11:53;18.90;55.20
7254;DHT22;4060;49.186;9.226;2023-05-16T16:14:25;18.90;55.10
7254;DHT22;4060;49.186;9.226;2023-05-16T16:16:55;18.90;55.00
7254;DHT22;4060;49.186;9.226;2023-05-16T16:19:25;18.80;54.90
7254;DHT22;4060;49.186;9.226;2023-05-16T16:21:54;18.80;54.90
7254;DHT22;4060;49.186;9.226;2023-05-16T16:24:25;18.80;54.90
7254;DHT22;4060;49.186;9.226;2023-05-16T16:26:55;18.80;54.80
7254;DHT22;4060;49.186;9.226;2023-05-16T16:29:28;18.80;54.80